createdAt,value
2024-04-15T03:45:32.476Z,144477.75
2024-04-15T03:47:59.503Z,144525.94
2024-04-15T03:50:26.636Z,144532.13
2024-04-15T03:52:55.677Z,144467.81
2024-04-15T03:55:22.781Z,144361.66
2024-04-15T03:57:49.858Z,144359.22
2024-04-15T04:00:16.925Z,144324.66
2024-04-15T04:02:44.048Z,144377.72
2024-04-15T04:05:11.057Z,144462.88
2024-04-15T04:07:38.558Z,144485.19
2024-04-15T04:10:08.531Z,144596.34
2024-04-15T04:12:35.581Z,144617.34
2024-04-15T04:15:02.657Z,144608.72
2024-04-15T04:17:30.408Z,144504.94
2024-04-15T04:19:59.499Z,144388.81
2024-04-15T04:22:27.842Z,144376.47
2024-04-15T04:24:55.146Z,144378.94
2024-04-15T04:27:22.180Z,144467.81
2024-04-15T04:29:49.200Z,144530.88
2024-04-15T04:32:16.235Z,144611.16
2024-04-15T04:34:43.324Z,144661.81
2024-04-15T04:37:10.656Z,144668.00
2024-04-15T04:39:37.696Z,144672.94
2024-04-15T04:42:06.348Z,144596.34
2024-04-15T04:44:33.329Z,144679.13
2024-04-15T04:47:00.755Z,144664.31
2024-04-15T04:49:27.875Z,144674.19
2024-04-15T04:51:54.890Z,144669.25
2024-04-15T04:54:21.945Z,144732.25
2024-04-15T04:56:48.909Z,144782.97
2024-04-15T04:59:15.912Z,144828.72
2024-04-15T05:01:43.116Z,144951.16
2024-04-15T05:04:12.241Z,144920.22
2024-04-15T05:06:39.371Z,145026.66
2024-04-15T05:09:09.025Z,145060.03
2024-04-15T05:11:37.506Z,145102.13
2024-04-15T05:14:04.685Z,145155.34
2024-04-15T05:16:32.083Z,145123.16
2024-04-15T05:18:59.380Z,145055.09
2024-04-15T05:21:28.497Z,145125.59
2024-04-15T05:23:57.502Z,145176.34
2024-04-15T05:26:24.517Z,145157.81
2024-04-15T05:28:51.593Z,145170.19
2024-04-15T05:31:18.594Z,145115.72
2024-04-15T05:33:45.685Z,145061.28
2024-04-15T05:36:12.772Z,145157.81
2024-04-15T05:38:39.787Z,145217.19
2024-04-15T05:41:06.805Z,145349.75
2024-04-15T05:43:33.867Z,145467.41
2024-04-15T05:46:04.650Z,145562.88
2024-04-15T05:48:33.287Z,145613.66
2024-04-15T05:51:00.324Z,145437.69
2024-04-15T05:53:27.447Z,145429.03
2024-04-15T05:55:54.520Z,145467.41
2024-04-15T05:58:21.807Z,145440.16
2024-04-15T06:00:48.947Z,145484.78
2024-04-15T06:03:16.005Z,145520.75
2024-04-15T06:05:43.054Z,145593.84
2024-04-15T06:08:11.743Z,145663.28
2024-04-15T06:10:39.179Z,145725.28
2024-04-15T06:13:06.231Z,145774.94
2024-04-15T06:15:38.732Z,145833.19
2024-04-15T06:18:06.867Z,145866.66
2024-04-15T06:20:33.951Z,145657.09
2024-04-15T06:23:00.981Z,145834.44
2024-04-15T06:25:28.093Z,145869.16
2024-04-15T06:27:55.115Z,145961.03
2024-04-15T06:30:22.170Z,145968.44
2024-04-15T06:32:49.283Z,146018.13
2024-04-15T06:35:16.367Z,146023.06
2024-04-15T06:37:43.443Z,146108.72
2024-04-15T06:40:10.823Z,146028.03
2024-04-15T06:42:37.860Z,146106.22
2024-04-15T06:45:05.161Z,146072.72
2024-04-15T06:47:32.222Z,146114.94
2024-04-15T06:49:59.738Z,146177.00
2024-04-15T06:52:27.675Z,146250.28
2024-04-15T06:54:55.215Z,146257.78
2024-04-15T06:57:22.412Z,146293.75
2024-04-15T06:59:49.516Z,146386.97
2024-04-15T07:02:21.158Z,146318.63
2024-04-15T07:04:52.548Z,146266.44
2024-04-15T07:09:47.572Z,146292.53
2024-04-15T07:12:14.658Z,146352.19
2024-04-15T07:14:41.819Z,146329.81
2024-04-15T07:17:09.117Z,146341.00
2024-04-15T07:19:36.284Z,146375.78
2024-04-15T07:22:03.403Z,146462.75
2024-04-15T07:24:30.953Z,146524.97
2024-04-15T07:26:57.999Z,146625.63
2024-04-15T07:29:24.993Z,146689.06
2024-04-15T07:31:52.052Z,146727.66
2024-04-15T07:34:19.146Z,146751.31
2024-04-15T07:36:46.363Z,146781.16
2024-04-15T07:39:13.445Z,146779.91
2024-04-15T07:41:40.498Z,146833.44
2024-04-15T07:44:07.567Z,146783.63
2024-04-15T07:46:34.739Z,146797.34
2024-04-15T07:49:01.805Z,146767.44
2024-04-15T07:51:31.291Z,146783.63
2024-04-15T07:53:58.518Z,146853.31
2024-04-15T07:56:25.720Z,146874.44
2024-04-15T07:58:52.781Z,146883.22
2024-04-15T08:01:20.685Z,146910.56
2024-04-15T08:03:47.834Z,146935.50
2024-04-15T08:06:15.087Z,146928.00
2024-04-15T08:08:43.062Z,146830.91
2024-04-15T08:11:10.363Z,146865.75
2024-04-15T08:13:37.476Z,146781.16
2024-04-15T08:16:05.021Z,146781.16
2024-04-15T08:18:32.110Z,146798.53
2024-04-15T08:20:59.176Z,146740.13
2024-04-15T08:23:26.931Z,146839.59
2024-04-15T08:25:56.524Z,146881.97
2024-04-15T08:28:24.958Z,146921.78
2024-04-15T08:30:52.193Z,146957.88
2024-04-15T08:33:19.325Z,147011.41
2024-04-15T08:35:46.370Z,147082.41
2024-04-15T08:38:13.454Z,147041.28
2024-04-15T08:41:01.988Z,147033.78
2024-04-15T08:43:29.565Z,147084.88
2024-04-15T08:46:02.501Z,147010.16
2024-04-15T08:48:30.111Z,147020.09
2024-04-15T08:50:59.357Z,147000.19
2024-04-15T08:53:26.702Z,147015.13
2024-04-15T08:55:53.694Z,147028.81
2024-04-15T08:58:21.462Z,147046.25
2024-04-15T09:00:49.760Z,147043.75
2024-04-15T09:03:17.933Z,147047.50
2024-04-15T09:05:45.104Z,147010.16
2024-04-15T09:08:13.604Z,147064.97
2024-04-15T09:10:41.644Z,147097.34
2024-04-15T09:13:11.111Z,147164.59
2024-04-15T09:15:40.126Z,147089.84
2024-04-15T09:18:07.935Z,147114.75
2024-04-15T09:20:44.664Z,147189.50
2024-04-15T09:23:21.784Z,147198.19
2024-04-15T09:25:48.934Z,147204.44
2024-04-15T09:28:16.286Z,147219.44
2024-04-15T09:30:43.373Z,147236.84
2024-04-15T09:33:14.170Z,147157.09
2024-04-15T09:35:41.570Z,147206.91
2024-04-15T09:38:11.774Z,147302.91
2024-04-15T09:40:42.356Z,147304.09
2024-04-15T09:43:11.704Z,147326.56
2024-04-15T09:45:38.820Z,147305.38
2024-04-15T09:48:06.325Z,147363.94
2024-04-15T09:50:40.572Z,147386.38
2024-04-15T09:53:18.653Z,147412.56
2024-04-15T09:55:51.589Z,147403.84
2024-04-15T09:58:21.831Z,147443.72
2024-04-15T10:00:53.172Z,147457.41
2024-04-15T10:03:24.521Z,147521.00
2024-04-15T10:05:54.848Z,147438.75
2024-04-15T10:08:23.115Z,147422.53
2024-04-15T10:10:50.846Z,147428.78
2024-04-15T10:13:18.285Z,147472.38
2024-04-15T10:15:46.686Z,147509.78
2024-04-15T10:18:15.735Z,147568.41
2024-04-15T10:20:44.941Z,147539.75
2024-04-15T10:23:16.353Z,147600.81
2024-04-15T10:25:43.761Z,147640.72
2024-04-15T10:28:12.952Z,147588.38
2024-04-15T10:30:41.955Z,147595.84
2024-04-15T10:33:12.449Z,147704.38
2024-04-15T10:35:41.863Z,147661.91
2024-04-15T10:38:10.457Z,147698.13
2024-04-15T10:40:40.674Z,147694.41
2024-04-15T10:43:08.231Z,147728.06
2024-04-15T10:45:35.362Z,147738.03
2024-04-15T10:48:02.672Z,147802.94
2024-04-15T10:50:29.854Z,147845.31
2024-04-15T10:52:56.939Z,147890.31
2024-04-15T10:55:24.289Z,147819.13
2024-04-15T10:57:51.769Z,147821.63
2024-04-15T11:00:21.198Z,147785.47
2024-04-15T11:02:54.020Z,147787.97
2024-04-15T11:05:23.960Z,147791.69
2024-04-15T11:07:55.135Z,147814.13
2024-04-15T11:10:22.543Z,147861.59
2024-04-15T11:12:54.091Z,147916.50
2024-04-15T11:15:22.815Z,147940.22
2024-04-15T11:17:52.127Z,147847.88
2024-04-15T11:20:20.904Z,147780.47
2024-04-15T11:22:48.670Z,147700.66
2024-04-15T11:25:17.013Z,147762.97
2024-04-15T11:27:55.210Z,147834.09
2024-04-15T11:30:27.866Z,147875.31
2024-04-15T11:33:00.530Z,147962.66
2024-04-15T11:35:27.938Z,148035.13
2024-04-15T11:37:59.734Z,148026.41
2024-04-15T11:40:27.528Z,148020.13
2024-04-15T11:42:58.330Z,148022.66
2024-04-15T11:45:25.529Z,148130.03
2024-04-15T11:47:56.648Z,148137.50
2024-04-15T11:50:23.745Z,148086.31
2024-04-15T11:52:51.101Z,148013.88
2024-04-15T11:55:24.824Z,148031.38
2024-04-15T11:57:52.260Z,148087.56
2024-04-15T12:00:20.423Z,148123.78
2024-04-15T12:02:48.946Z,148145.06
2024-04-15T12:05:16.569Z,148170.03
2024-04-15T12:07:44.702Z,148180.00
2024-04-15T12:10:13.515Z,148130.03
2024-04-15T12:12:40.765Z,148197.47
2024-04-15T12:15:11.633Z,148208.72
2024-04-15T12:17:39.385Z,148182.47
2024-04-15T12:20:09.286Z,148202.47
2024-04-15T12:22:36.861Z,148182.47
2024-04-15T12:25:08.309Z,148155.03
2024-04-15T12:27:39.549Z,148058.88
2024-04-15T12:30:11.441Z,148091.28
2024-04-15T12:32:42.930Z,148112.53
2024-04-15T12:35:12.101Z,148132.50
2024-04-15T12:37:39.710Z,148088.81
2024-04-15T12:40:09.045Z,148082.56
2024-04-15T12:42:36.404Z,148073.84
2024-04-15T12:45:04.926Z,148061.34
2024-04-15T12:47:33.143Z,148050.09
2024-04-15T12:50:00.473Z,148082.56
2024-04-15T12:52:27.784Z,148021.41
2024-04-15T12:54:55.007Z,148132.50
2024-04-15T12:57:22.362Z,148127.50
2024-04-15T12:59:49.458Z,148090.03
2024-04-15T13:02:16.734Z,148045.09
2024-04-15T13:04:44.899Z,148032.66
2024-04-15T13:07:13.087Z,148057.59
2024-04-15T13:09:40.551Z,148078.84
2024-04-15T13:12:11.431Z,148070.06
2024-04-15T13:14:39.579Z,148056.34
2024-04-15T13:17:06.897Z,148075.06
2024-04-15T13:19:34.049Z,148037.63
2024-04-15T13:22:02.467Z,148020.13
2024-04-15T13:24:31.204Z,148088.81
2024-04-15T13:26:58.403Z,148120.03
2024-04-15T13:29:25.411Z,148077.56
2024-04-15T13:32:01.299Z,148096.28
2024-04-15T13:34:36.169Z,148106.28
2024-04-15T13:37:03.773Z,148097.53
2024-04-15T13:39:30.817Z,148057.59
2024-04-15T13:41:58.810Z,148060.06
2024-04-15T13:44:26.337Z,148105.06
2024-04-15T13:46:53.590Z,148112.53
2024-04-15T13:49:21.252Z,148025.13
2024-04-15T13:51:48.449Z,148123.78
2024-04-15T13:54:15.524Z,148077.56
2024-04-15T13:56:42.627Z,148102.53
2024-04-15T13:59:10.244Z,148023.88
2024-04-15T14:01:37.371Z,148062.59
2024-04-15T14:04:04.628Z,148083.81
2024-04-15T14:06:32.678Z,148092.56
2024-04-15T14:08:59.754Z,148032.66
2024-04-15T14:11:26.889Z,148057.59
2024-04-15T14:13:55.718Z,148037.63
2024-04-15T14:16:24.213Z,148085.03
2024-04-15T14:18:51.400Z,148071.31
2024-04-15T14:21:18.462Z,148065.06
2024-04-15T14:23:45.530Z,148078.84
2024-04-15T14:26:12.730Z,148061.34
2024-04-15T14:28:41.306Z,148066.34
2024-04-15T14:31:08.385Z,148027.66
2024-04-15T14:33:35.668Z,147991.41
2024-04-15T14:36:03.571Z,147967.66
2024-04-15T14:38:31.217Z,147936.44
2024-04-15T14:40:58.653Z,147951.47
2024-04-15T14:43:26.152Z,147932.72
2024-04-15T14:45:54.479Z,147900.31
2024-04-15T14:48:21.716Z,147945.22
2024-04-15T14:50:48.832Z,147960.19
2024-04-15T14:53:15.919Z,147922.75
2024-04-15T14:55:43.079Z,147910.28
2024-04-15T14:58:10.517Z,147906.50
2024-04-15T15:00:37.734Z,147917.75
2024-04-15T15:03:05.196Z,147926.47
2024-04-15T15:05:32.295Z,147930.25
2024-04-15T17:14:13.366Z,147165.81
2024-04-15T17:16:40.532Z,147174.56
2024-04-15T17:19:07.733Z,147173.28
2024-04-15T17:21:34.902Z,147174.56
2024-04-15T17:24:01.945Z,147155.84
2024-04-15T17:26:29.071Z,147167.06
2024-04-15T17:28:56.451Z,147150.88
2024-04-15T17:31:23.741Z,147149.66
2024-04-15T17:33:51.019Z,147122.25
2024-04-15T17:36:18.282Z,147092.38
2024-04-15T17:38:45.422Z,147084.88
2024-04-15T17:41:12.602Z,147086.13
2024-04-15T17:43:39.815Z,147040.03
2024-04-15T17:46:08.969Z,147092.38
2024-04-15T17:48:36.097Z,146985.28
2024-04-15T17:51:05.303Z,147017.59
2024-04-15T17:53:32.408Z,147006.44
2024-04-15T17:56:00.928Z,146997.69
2024-04-15T17:58:28.094Z,146995.22
2024-04-15T18:00:55.201Z,146974.06
2024-04-15T18:03:22.336Z,146928.00
2024-04-15T18:05:49.657Z,146933.00
2024-04-15T18:08:16.711Z,146933.00
2024-04-15T18:10:43.840Z,146853.31
2024-04-15T18:13:10.979Z,146859.50
2024-04-15T18:15:38.109Z,146827.19
2024-04-15T18:18:05.614Z,146858.28
2024-04-15T18:20:32.724Z,146823.44
2024-04-15T18:22:59.894Z,146791.13
2024-04-15T18:25:26.991Z,146787.41
2024-04-15T18:27:55.040Z,146837.13
2024-04-15T18:30:25.362Z,146783.63
2024-04-15T18:32:52.543Z,146757.50
2024-04-15T18:35:19.750Z,146661.69
2024-04-15T18:37:46.982Z,146716.47
2024-04-15T18:40:14.301Z,146710.28
2024-04-15T18:42:41.563Z,146714.00
2024-04-15T18:45:08.738Z,146605.75
2024-04-15T18:47:36.082Z,146680.38
2024-04-15T18:50:04.640Z,146661.69
2024-04-15T18:52:31.806Z,146709.03
2024-04-15T18:54:58.876Z,146701.53
2024-04-15T18:57:27.545Z,146762.47
2024-04-15T18:59:54.639Z,146695.31
2024-04-15T19:02:21.920Z,146667.94
2024-04-15T19:04:49.239Z,146697.78
2024-04-15T19:07:16.588Z,146614.50
2024-04-15T19:09:43.767Z,146696.50
2024-04-15T19:12:11.282Z,146709.03
2024-04-15T19:14:52.087Z,146676.63
2024-04-15T19:17:27.405Z,146677.88
2024-04-15T19:19:54.777Z,146646.78
2024-04-15T19:22:21.857Z,146623.19
2024-04-15T19:24:49.307Z,146520.00
2024-04-15T19:27:16.735Z,146451.56
2024-04-15T19:29:46.178Z,146451.56
2024-04-15T19:32:13.568Z,146394.44
2024-04-15T19:34:40.810Z,146375.78
2024-04-15T19:37:08.627Z,146382.00
2024-04-15T19:39:36.793Z,146440.44
2024-04-15T19:42:03.981Z,146436.66
2024-04-15T19:44:31.206Z,146457.78
2024-04-15T19:46:58.570Z,146432.94
2024-04-15T19:49:25.843Z,146388.22
2024-04-15T19:51:52.982Z,146368.34
2024-04-15T19:54:20.361Z,146365.84
2024-04-15T19:56:51.284Z,146317.38
2024-04-15T19:59:18.599Z,146235.41
2024-04-15T20:01:46.687Z,146226.72
2024-04-15T20:04:13.910Z,146226.72
2024-04-15T20:06:42.611Z,146251.56
2024-04-15T20:09:09.830Z,146213.03
2024-04-15T20:11:37.007Z,146210.56
2024-04-15T20:14:06.607Z,146199.38
2024-04-15T20:16:35.125Z,146174.56
2024-04-15T20:19:07.572Z,146179.53
2024-04-15T20:21:35.355Z,146158.41
2024-04-15T20:24:02.560Z,146154.69
2024-04-15T20:26:30.674Z,146131.06
2024-04-15T20:28:57.935Z,146134.84
2024-04-15T20:31:25.159Z,146167.09
2024-04-15T20:33:52.309Z,146159.66
2024-04-15T20:36:19.844Z,146172.06
2024-04-15T20:38:46.944Z,146186.94
2024-04-15T20:41:14.577Z,146143.50
2024-04-15T20:43:41.902Z,146134.84
2024-04-15T20:46:11.226Z,145936.22
2024-04-15T20:48:38.623Z,145921.28
2024-04-15T20:51:05.812Z,145882.78
2024-04-15T20:53:32.911Z,145843.13
2024-04-15T20:55:59.986Z,145794.75
2024-04-15T20:58:27.118Z,145807.13
2024-04-15T21:00:56.226Z,145817.06
2024-04-15T21:03:23.533Z,145843.13
2024-04-15T21:05:51.596Z,145791.00
2024-04-15T21:08:18.657Z,145683.13
2024-04-15T21:10:45.807Z,145603.75
2024-04-15T21:13:14.039Z,145695.50
2024-04-15T21:15:41.368Z,145720.34
2024-04-15T21:18:08.575Z,145702.97
2024-04-15T21:20:35.731Z,145705.41
2024-04-15T21:23:02.849Z,145787.31
2024-04-15T21:25:30.045Z,145798.47
2024-04-15T21:27:57.639Z,145719.13
2024-04-15T21:30:25.055Z,145633.50
2024-04-15T21:32:52.180Z,145702.97
2024-04-15T21:35:21.180Z,145702.97
2024-04-15T21:37:48.223Z,145653.31
2024-04-15T21:40:15.418Z,145725.28
2024-04-15T21:42:42.677Z,145670.72
2024-04-15T21:45:09.788Z,145698.00
2024-04-15T21:47:37.029Z,145709.13
2024-04-15T21:50:04.893Z,145758.78
2024-04-15T21:56:13.241Z,145794.75
2024-04-15T21:58:41.536Z,145752.59
2024-04-15T22:01:09.324Z,145640.97
2024-04-15T22:03:36.468Z,145539.34
2024-04-15T22:06:04.766Z,145549.25
2024-04-15T22:08:32.154Z,145497.19
2024-04-15T22:10:59.786Z,145528.19
2024-04-15T22:13:30.059Z,145450.09
2024-04-15T22:15:57.446Z,145494.75
2024-04-15T22:18:24.529Z,145554.19
2024-04-15T22:20:51.623Z,145544.28
2024-04-15T22:23:18.680Z,145659.53
2024-04-15T22:25:57.303Z,145633.50
2024-04-15T22:28:24.704Z,145640.97
2024-04-15T22:30:56.764Z,145629.78
2024-04-15T22:33:26.783Z,145571.56
2024-04-15T22:35:53.908Z,145474.88
2024-04-15T22:38:20.993Z,145294.00
2024-04-15T22:40:49.560Z,145261.84
2024-04-15T22:43:18.526Z,145280.41
2024-04-15T22:45:47.062Z,145347.28
2024-04-15T22:48:14.341Z,145435.19
2024-04-15T22:50:41.420Z,145504.66
2024-04-15T22:53:08.514Z,145467.41
2024-04-15T22:55:35.605Z,145415.38
2024-04-15T22:58:03.186Z,145291.56
2024-04-15T23:00:30.369Z,145291.56
2024-04-15T23:02:57.496Z,145290.31
2024-04-15T23:05:25.021Z,145178.84
2024-04-15T23:07:52.044Z,145098.41
2024-04-15T23:10:19.159Z,145073.69
2024-04-15T23:12:46.218Z,145058.81
2024-04-15T23:15:13.338Z,145084.81
2024-04-15T23:17:40.466Z,145083.56
2024-04-15T23:20:08.322Z,145100.88
2024-04-15T23:22:35.457Z,145131.81
2024-04-15T23:25:02.616Z,145129.34
2024-04-15T23:27:29.697Z,145224.66
2024-04-15T23:29:56.728Z,145237.06
2024-04-15T23:32:23.829Z,145294.00
2024-04-15T23:34:50.950Z,145338.59
2024-04-15T23:37:18.050Z,145393.09
2024-04-15T23:39:45.339Z,145373.28
2024-04-15T23:42:12.937Z,145406.72
2024-04-15T23:44:40.393Z,145438.94
2024-04-15T23:47:26.333Z,145412.94
2024-04-15T23:50:11.851Z,145425.28
2024-04-15T23:52:58.290Z,145375.75
2024-04-15T23:55:43.990Z,145372.03
2024-04-15T23:58:14.381Z,145353.50
